createdAt,value
2017-07-02T00:01:54.072Z,86.30
2017-07-02T00:04:21.580Z,86.60
2017-07-02T00:06:49.122Z,86.80
2017-07-02T00:09:16.667Z,87.20
2017-07-02T00:11:44.152Z,87.20
2017-07-02T00:14:11.656Z,88.30
2017-07-02T00:16:39.306Z,87.40
2017-07-02T00:19:06.827Z,87.40
2017-07-02T00:21:34.372Z,87.50
2017-07-02T00:24:01.896Z,87.80
2017-07-02T00:26:29.468Z,87.60
2017-07-02T00:28:57.021Z,87.70
2017-07-02T00:31:24.552Z,87.50
2017-07-02T00:33:52.040Z,87.70
2017-07-02T00:36:19.540Z,87.30
2017-07-02T00:38:47.079Z,87.50
2017-07-02T00:41:14.597Z,87.90
2017-07-02T00:43:42.181Z,88.00
2017-07-02T00:46:09.716Z,88.40
2017-07-02T00:48:37.215Z,88.20
2017-07-02T00:51:05.610Z,88.50
2017-07-02T00:53:33.165Z,88.10
2017-07-02T00:56:00.708Z,87.80
2017-07-02T00:58:28.204Z,87.80
2017-07-02T01:00:55.689Z,87.80
2017-07-02T01:03:23.240Z,88.10
2017-07-02T01:05:50.787Z,88.20
2017-07-02T01:08:18.276Z,88.60
2017-07-02T01:10:45.776Z,88.80
2017-07-02T01:13:13.264Z,88.90
2017-07-02T01:15:40.767Z,88.80
2017-07-02T01:18:08.313Z,88.70
2017-07-02T01:20:35.826Z,88.90
2017-07-02T01:23:03.402Z,88.90
2017-07-02T01:25:30.902Z,88.30
2017-07-02T01:27:59.149Z,87.70
2017-07-02T01:30:26.665Z,87.70
2017-07-02T01:32:54.168Z,87.90
2017-07-02T01:35:21.708Z,87.90
2017-07-02T01:37:49.253Z,88.30
2017-07-02T01:40:16.792Z,88.50
2017-07-02T01:42:44.291Z,88.70
2017-07-02T01:45:11.817Z,88.80
2017-07-02T01:47:39.321Z,88.90
2017-07-02T01:50:06.842Z,89.40
2017-07-02T01:52:35.344Z,90.00
2017-07-02T01:55:02.845Z,90.00
2017-07-02T01:57:30.331Z,90.00
2017-07-02T01:59:57.941Z,90.20
2017-07-02T02:02:38.087Z,90.40
2017-07-02T02:05:05.633Z,90.30
2017-07-02T02:07:33.189Z,90.40
2017-07-02T02:10:00.732Z,90.40
2017-07-02T02:12:28.224Z,90.60
2017-07-02T02:14:55.719Z,90.50
2017-07-02T02:17:23.224Z,90.50
2017-07-02T02:19:50.800Z,90.60
2017-07-02T02:22:18.312Z,90.70
2017-07-02T02:24:45.804Z,90.60
2017-07-02T02:27:13.344Z,90.60
2017-07-02T02:29:40.989Z,90.60
2017-07-02T02:32:08.490Z,90.50
2017-07-02T02:34:36.773Z,90.50
2017-07-02T02:37:04.327Z,90.50
2017-07-02T02:39:31.872Z,90.60
2017-07-02T02:41:59.355Z,90.70
2017-07-02T02:44:26.856Z,90.70
2017-07-02T02:46:54.407Z,90.70
2017-07-02T02:49:21.892Z,90.70
2017-07-02T02:51:49.385Z,90.70
2017-07-02T02:54:16.903Z,90.70
2017-07-02T02:56:45.184Z,90.70
2017-07-02T02:59:12.742Z,90.70
2017-07-02T03:01:40.297Z,90.60
2017-07-02T03:04:07.839Z,90.70
2017-07-02T03:06:35.364Z,90.60
2017-07-02T03:09:02.869Z,90.60
2017-07-02T03:11:30.449Z,90.50
2017-07-02T03:13:57.989Z,90.40
2017-07-02T03:16:25.474Z,90.40
2017-07-02T03:18:52.968Z,90.40
2017-07-02T03:21:20.464Z,90.50
2017-07-02T03:23:47.976Z,90.40
2017-07-02T03:26:15.502Z,90.50
2017-07-02T03:28:43.071Z,90.60
2017-07-02T03:31:10.580Z,90.50
2017-07-02T03:33:38.145Z,90.60
2017-07-02T03:36:05.656Z,90.40
2017-07-02T03:38:33.925Z,90.00
2017-07-02T03:41:01.437Z,89.90
2017-07-02T03:43:29.020Z,89.90
2017-07-02T03:45:56.771Z,90.00
2017-07-02T03:48:24.345Z,90.00
2017-07-02T03:50:51.828Z,89.50
2017-07-02T03:53:19.356Z,89.90
2017-07-02T03:55:46.944Z,90.10
2017-07-02T03:58:14.516Z,90.10
2017-07-02T04:00:42.064Z,90.20
2017-07-02T04:03:09.691Z,90.10
2017-07-02T04:05:37.210Z,90.00
2017-07-02T04:08:04.749Z,89.80
2017-07-02T04:10:32.252Z,89.30
2017-07-02T04:12:59.880Z,89.10
2017-07-02T04:15:27.396Z,89.10
2017-07-02T04:17:54.942Z,88.80
2017-07-02T04:20:22.475Z,88.70
2017-07-02T04:22:50.023Z,88.70
2017-07-02T04:25:17.572Z,88.30
2017-07-02T04:27:45.089Z,88.80
2017-07-02T04:30:13.349Z,88.70
2017-07-02T04:32:41.652Z,88.30
2017-07-02T04:35:09.175Z,88.30
2017-07-02T04:37:36.715Z,88.60
2017-07-02T04:40:04.260Z,88.30
2017-07-02T04:42:31.808Z,88.20
2017-07-02T04:44:59.319Z,87.60
2017-07-02T04:47:27.574Z,87.30
2017-07-02T04:49:55.259Z,87.40
2017-07-02T04:52:22.800Z,87.10
2017-07-02T04:54:50.349Z,87.20
2017-07-02T04:57:17.884Z,87.40
2017-07-02T04:59:45.433Z,87.20
2017-07-02T05:02:12.936Z,87.00
2017-07-02T05:04:41.216Z,87.20
2017-07-02T05:07:09.477Z,86.40
2017-07-02T05:09:37.041Z,86.40
2017-07-02T05:12:04.683Z,87.10
2017-07-02T05:14:32.428Z,86.70
2017-07-02T05:16:59.907Z,86.10
2017-07-02T05:19:27.516Z,85.80
2017-07-02T05:21:55.061Z,86.00
2017-07-02T05:24:22.555Z,85.90
2017-07-02T05:26:50.049Z,84.90
2017-07-02T05:29:17.684Z,85.20
2017-07-02T05:31:45.171Z,84.20
2017-07-02T05:34:12.672Z,84.20
2017-07-02T05:36:40.232Z,84.30
2017-07-02T05:39:07.764Z,83.80
2017-07-02T05:41:35.285Z,83.70
2017-07-02T05:44:03.570Z,84.40
2017-07-02T05:46:31.056Z,84.40
2017-07-02T05:48:58.545Z,84.10
2017-07-02T05:51:26.061Z,85.20
2017-07-02T05:53:53.552Z,84.50
2017-07-02T05:56:21.032Z,83.60
2017-07-02T05:58:48.621Z,84.10
2017-07-02T06:01:16.104Z,83.70
2017-07-02T06:03:43.602Z,82.90
2017-07-02T06:06:11.105Z,83.00
2017-07-02T06:08:39.378Z,82.00
2017-07-02T06:11:07.685Z,81.50
2017-07-02T06:13:35.242Z,81.50
2017-07-02T06:16:02.768Z,81.30
2017-07-02T06:18:30.312Z,79.70
2017-07-02T06:20:57.824Z,79.50
2017-07-02T06:23:26.079Z,77.90
2017-07-02T06:25:54.367Z,78.50
2017-07-02T06:28:21.912Z,78.20
2017-07-02T06:30:49.456Z,78.40
2017-07-02T06:33:16.997Z,77.50
2017-07-02T06:35:44.517Z,76.90
2017-07-02T06:38:12.767Z,78.50
2017-07-02T06:40:41.037Z,78.20
2017-07-02T06:43:09.354Z,78.10
2017-07-02T06:45:36.889Z,78.00
2017-07-02T06:48:04.411Z,78.20
2017-07-02T06:50:32.156Z,78.30
2017-07-02T06:52:59.831Z,78.10
2017-07-02T06:55:27.313Z,78.40
2017-07-02T06:57:54.880Z,79.30
2017-07-02T07:00:22.364Z,77.90
2017-07-02T07:02:50.077Z,76.80
2017-07-02T07:05:17.632Z,77.10
2017-07-02T07:07:45.168Z,76.70
2017-07-02T07:10:12.700Z,77.00
2017-07-02T07:12:40.220Z,77.50
2017-07-02T07:15:08.478Z,77.90
2017-07-02T07:17:36.165Z,77.20
2017-07-02T07:20:03.645Z,77.20
2017-07-02T07:22:31.128Z,78.00
2017-07-02T07:24:59.604Z,77.10
2017-07-02T07:27:27.087Z,77.10
2017-07-02T07:29:54.573Z,77.40
2017-07-02T07:32:22.849Z,78.20
2017-07-02T07:34:50.349Z,78.20
2017-07-02T07:37:17.840Z,78.30
2017-07-02T07:39:45.356Z,77.80
2017-07-02T07:42:13.651Z,78.70
2017-07-02T07:44:41.209Z,78.60
2017-07-02T07:47:09.073Z,79.40
2017-07-02T07:49:36.583Z,78.80
2017-07-02T07:52:04.260Z,78.70
2017-07-02T07:54:31.753Z,79.50
2017-07-02T07:57:00.176Z,79.40
2017-07-02T07:59:27.681Z,79.40
2017-07-02T08:01:55.236Z,79.50
2017-07-02T08:04:22.861Z,80.10
2017-07-02T08:06:50.403Z,80.60
2017-07-02T08:09:17.954Z,80.20
2017-07-02T08:11:45.492Z,81.60
2017-07-02T08:14:12.992Z,82.50
2017-07-02T08:16:40.499Z,83.00
2017-07-02T08:19:08.341Z,82.90
2017-07-02T08:21:35.902Z,84.10
2017-07-02T08:24:03.391Z,82.50
2017-07-02T08:26:31.644Z,82.20
2017-07-02T08:28:59.220Z,81.90
2017-07-02T08:31:26.994Z,82.10
2017-07-02T08:33:54.480Z,82.30
2017-07-02T08:36:22.059Z,81.90
2017-07-02T08:38:49.830Z,81.20
2017-07-02T08:41:17.331Z,81.20
2017-07-02T08:43:45.592Z,82.60
2017-07-02T08:46:13.856Z,83.50
2017-07-02T08:48:41.364Z,83.50
2017-07-02T08:51:08.939Z,84.50
2017-07-02T08:53:36.483Z,84.40
2017-07-02T08:56:04.249Z,84.00
2017-07-02T08:58:31.996Z,83.50
2017-07-02T09:00:59.497Z,82.80
2017-07-02T09:03:27.085Z,83.30
2017-07-02T09:05:54.626Z,84.60
2017-07-02T09:08:22.167Z,86.00
2017-07-02T09:10:49.717Z,87.00
2017-07-02T09:13:17.241Z,87.50
2017-07-02T09:15:45.645Z,88.90
2017-07-02T09:18:13.158Z,88.80
2017-07-02T09:20:40.705Z,89.70
2017-07-02T09:23:08.254Z,89.70
2017-07-02T09:25:35.927Z,90.00
2017-07-02T09:28:03.480Z,90.20
2017-07-02T09:30:31.080Z,90.50
2017-07-02T09:32:58.628Z,90.80
2017-07-02T09:35:26.383Z,90.70
2017-07-02T09:37:53.917Z,90.50
2017-07-02T09:40:21.416Z,90.50
2017-07-02T09:42:48.939Z,90.70
2017-07-02T09:45:16.441Z,90.80
2017-07-02T09:47:43.952Z,90.80
2017-07-02T09:50:12.452Z,90.50
2017-07-02T09:52:39.944Z,90.50
2017-07-02T09:55:07.453Z,90.20
2017-07-02T09:57:35.010Z,89.90
2017-07-02T10:00:02.493Z,90.00
2017-07-02T10:02:30.076Z,90.10
2017-07-02T10:04:57.612Z,90.30
2017-07-02T10:07:25.161Z,90.00
2017-07-02T10:09:52.700Z,90.00
2017-07-02T10:12:20.244Z,89.10
2017-07-02T10:14:47.743Z,88.00
2017-07-02T10:17:15.276Z,87.60
2017-07-02T10:19:42.776Z,86.90
2017-07-02T10:22:10.333Z,85.60
2017-07-02T10:24:37.879Z,85.90
2017-07-02T10:27:05.388Z,86.10
2017-07-02T10:29:33.648Z,86.60
2017-07-02T10:32:01.932Z,87.50
2017-07-02T10:34:29.424Z,86.60
2017-07-02T10:36:56.988Z,85.30
2017-07-02T10:39:25.473Z,86.50
2017-07-02T10:41:53.053Z,86.30
2017-07-02T10:44:20.564Z,86.90
2017-07-02T10:46:48.056Z,85.90
2017-07-02T10:49:15.580Z,85.00
2017-07-02T10:51:43.102Z,84.30
2017-07-02T10:54:10.681Z,84.90
2017-07-02T10:56:38.193Z,86.50
2017-07-02T10:59:05.744Z,87.20
2017-07-02T11:01:33.241Z,87.50
2017-07-02T11:04:01.500Z,90.10
2017-07-02T11:06:29.784Z,90.10
2017-07-02T11:08:57.276Z,90.10
2017-07-02T11:11:24.760Z,90.50
2017-07-02T11:13:53.049Z,90.40
2017-07-02T11:16:20.573Z,90.40
2017-07-02T11:18:48.121Z,90.60
2017-07-02T11:21:15.665Z,90.70
2017-07-02T11:23:43.192Z,90.90
2017-07-02T11:26:10.768Z,90.00
2017-07-02T11:28:38.397Z,90.40
2017-07-02T11:31:05.952Z,91.00
2017-07-02T11:33:33.496Z,90.60
2017-07-02T11:36:01.054Z,90.20
2017-07-02T11:38:28.537Z,89.70
2017-07-02T11:40:56.829Z,88.80
2017-07-02T11:43:24.380Z,88.70
2017-07-02T11:45:51.880Z,87.50
2017-07-02T11:48:19.457Z,87.00
2017-07-02T11:50:47.001Z,84.80
2017-07-02T11:53:14.548Z,82.00
2017-07-02T11:55:42.044Z,79.60
2017-07-02T11:58:09.532Z,77.60
2017-07-02T12:00:37.048Z,75.40
2017-07-02T12:03:05.396Z,74.40
2017-07-02T12:05:32.892Z,73.50
2017-07-02T12:08:00.368Z,73.00
2017-07-02T12:10:27.952Z,74.80
2017-07-02T12:12:56.205Z,73.70
2017-07-02T12:15:24.688Z,74.50
2017-07-02T12:17:52.224Z,74.40
2017-07-02T12:20:19.771Z,74.10
2017-07-02T12:22:47.540Z,73.40
2017-07-02T12:25:15.091Z,73.40
2017-07-02T12:27:42.580Z,72.30
2017-07-02T12:30:10.255Z,71.40
2017-07-02T12:32:37.771Z,72.70
2017-07-02T12:35:06.081Z,73.10
2017-07-02T12:37:33.696Z,73.00
2017-07-02T12:40:01.248Z,71.50
2017-07-02T12:42:28.817Z,72.70
2017-07-02T12:44:56.332Z,73.40
2017-07-02T12:47:23.872Z,72.70
2017-07-02T12:49:51.352Z,71.40
2017-07-02T12:52:18.844Z,69.70
2017-07-02T12:54:47.117Z,65.30
2017-07-02T12:57:14.679Z,65.20
2017-07-02T12:59:42.185Z,62.00
2017-07-02T13:02:10.702Z,55.50
2017-07-02T13:04:38.205Z,55.50
2017-07-02T13:07:06.465Z,48.40
2017-07-02T13:09:34.748Z,50.10
2017-07-02T13:12:02.283Z,50.00
2017-07-02T13:14:30.525Z,52.60
2017-07-02T13:16:58.901Z,52.40
2017-07-02T13:19:26.391Z,52.30
2017-07-02T13:21:53.884Z,52.80
2017-07-02T13:24:21.376Z,52.50
2017-07-02T13:26:48.872Z,53.30
2017-07-02T13:29:16.399Z,54.40
2017-07-02T13:31:44.676Z,57.30
2017-07-02T13:34:12.172Z,57.30
2017-07-02T13:36:39.769Z,57.50
2017-07-02T13:39:07.272Z,57.40
2017-07-02T13:41:35.598Z,56.90
2017-07-02T13:44:03.089Z,56.90
2017-07-02T13:46:31.329Z,52.80
2017-07-02T13:48:58.885Z,52.80
2017-07-02T13:51:26.451Z,51.60
2017-07-02T13:53:53.936Z,49.70
2017-07-02T13:56:21.642Z,51.60
2017-07-02T13:58:49.138Z,52.30
2017-07-02T14:01:16.637Z,51.40
2017-07-02T14:03:44.261Z,52.90
2017-07-02T14:06:11.789Z,52.20
2017-07-02T14:08:39.290Z,54.30
2017-07-02T14:11:06.845Z,50.00
2017-07-02T14:13:34.354Z,49.50
2017-07-02T14:16:01.834Z,43.80
2017-07-02T14:18:29.348Z,42.90
2017-07-02T14:20:56.827Z,37.40
2017-07-02T14:23:24.307Z,36.00
2017-07-02T14:25:52.677Z,39.00
2017-07-02T14:28:20.155Z,39.00
2017-07-02T14:30:47.660Z,41.40
2017-07-02T14:33:15.185Z,44.10
2017-07-02T14:35:43.458Z,45.40
2017-07-02T14:38:10.949Z,45.40
2017-07-02T14:40:38.472Z,46.40
2017-07-02T14:43:05.979Z,43.80
2017-07-02T14:45:34.362Z,44.50
2017-07-02T14:48:02.059Z,44.50
2017-07-02T14:50:29.544Z,40.80
2017-07-02T14:52:57.021Z,39.10
2017-07-02T14:55:24.628Z,39.30
2017-07-02T14:57:52.864Z,39.20
2017-07-02T15:00:20.345Z,39.20
2017-07-02T15:02:47.877Z,40.50
2017-07-02T15:05:15.451Z,40.40
2017-07-02T15:07:42.934Z,39.40
2017-07-02T15:10:11.247Z,42.00
2017-07-02T15:12:38.794Z,42.00
2017-07-02T15:15:06.333Z,41.00
2017-07-02T15:17:33.827Z,42.10
2017-07-02T15:20:02.216Z,36.90
2017-07-02T15:22:29.697Z,36.90
2017-07-02T15:24:57.204Z,37.30
2017-07-02T15:27:24.753Z,33.00
2017-07-02T15:29:52.299Z,31.90
2017-07-02T15:32:19.835Z,32.00
2017-07-02T15:34:47.362Z,31.20
2017-07-02T15:37:15.632Z,31.20
2017-07-02T15:39:43.186Z,31.10
2017-07-02T15:42:10.692Z,28.50
2017-07-02T15:44:38.956Z,30.40
2017-07-02T15:47:07.511Z,30.10
2017-07-02T15:49:35.005Z,30.00
2017-07-02T15:52:02.540Z,29.30
2017-07-02T15:54:30.076Z,28.90
2017-07-02T15:56:57.762Z,28.40
2017-07-02T15:59:25.234Z,27.00
2017-07-02T16:01:52.913Z,27.90
2017-07-02T16:04:20.385Z,27.40
2017-07-02T16:06:47.901Z,26.80
2017-07-02T16:09:15.672Z,26.20
2017-07-02T16:11:43.163Z,25.50
2017-07-02T16:14:10.735Z,25.90
2017-07-02T16:16:38.267Z,25.80
2017-07-02T16:19:05.752Z,26.40
2017-07-02T16:21:33.264Z,27.10
2017-07-02T16:24:00.808Z,26.60
2017-07-02T16:26:28.348Z,26.20
2017-07-02T16:28:55.901Z,26.60
2017-07-02T16:31:23.381Z,27.40
2017-07-02T16:33:50.879Z,27.50
2017-07-02T16:36:18.425Z,28.40
2017-07-02T16:38:45.961Z,27.10
2017-07-02T16:41:13.702Z,25.90
2017-07-02T16:43:41.225Z,25.30
2017-07-02T16:46:08.713Z,26.80
2017-07-02T16:48:36.332Z,26.90
2017-07-02T16:51:03.848Z,25.30
2017-07-02T16:53:31.428Z,27.00
2017-07-02T16:55:59.192Z,25.70
2017-07-02T16:58:26.726Z,27.50
2017-07-02T17:00:54.218Z,27.80
2017-07-02T17:03:21.721Z,29.30
2017-07-02T17:05:49.464Z,31.00
2017-07-02T17:08:16.964Z,30.90
2017-07-02T17:10:44.444Z,29.70
2017-07-02T17:13:11.981Z,28.60
2017-07-02T17:15:39.475Z,27.50
2017-07-02T17:18:06.999Z,26.30
2017-07-02T17:20:34.583Z,26.10
2017-07-02T17:23:02.836Z,25.70
2017-07-02T17:25:30.317Z,25.20
2017-07-02T17:27:57.829Z,24.90
2017-07-02T17:30:26.083Z,22.90
2017-07-02T17:32:53.561Z,22.70
2017-07-02T17:35:21.103Z,24.00
2017-07-02T17:37:48.599Z,24.90
2017-07-02T17:40:16.072Z,26.10
2017-07-02T17:42:44.514Z,27.00
2017-07-02T17:45:12.008Z,26.90
2017-07-02T17:47:39.544Z,26.40
2017-07-02T17:50:07.064Z,26.10
2017-07-02T17:52:35.656Z,29.10
2017-07-02T17:55:03.221Z,29.00
2017-07-02T17:57:30.742Z,31.10
2017-07-02T17:59:58.276Z,31.70
2017-07-02T18:02:25.757Z,31.50
2017-07-02T18:04:53.258Z,33.50
2017-07-02T18:07:21.624Z,33.30
2017-07-02T18:09:49.168Z,33.30
2017-07-02T18:12:16.713Z,35.20
2017-07-02T18:14:44.275Z,36.10
2017-07-02T18:17:11.800Z,37.00
2017-07-02T18:19:39.292Z,37.50
2017-07-02T18:22:07.080Z,37.50
2017-07-02T18:24:35.329Z,39.10
2017-07-02T18:27:03.578Z,40.30
2017-07-02T18:29:31.106Z,40.30
2017-07-02T18:32:04.032Z,42.00
2017-07-02T18:34:31.533Z,41.40
2017-07-02T18:36:59.008Z,41.00
2017-07-02T18:39:26.489Z,41.20
2017-07-02T18:41:53.994Z,41.50
2017-07-02T18:44:21.538Z,44.00
2017-07-02T18:46:49.019Z,43.30
2017-07-02T18:49:16.716Z,43.80
2017-07-02T18:51:45.085Z,43.90
2017-07-02T18:54:12.644Z,43.80
2017-07-02T18:56:40.179Z,43.30
2017-07-02T18:59:07.964Z,45.50
2017-07-02T19:01:35.472Z,43.90
2017-07-02T19:04:03.008Z,45.40
2017-07-02T19:06:30.496Z,45.30
2017-07-02T19:08:58.033Z,45.90
2017-07-02T19:11:25.578Z,46.00
2017-07-02T19:13:53.068Z,46.60
2017-07-02T19:16:21.340Z,46.30
2017-07-02T19:18:48.849Z,46.30
2017-07-02T19:21:16.337Z,47.70
2017-07-02T19:23:43.828Z,47.90
2017-07-02T19:26:12.154Z,47.50
2017-07-02T19:28:39.690Z,48.40
2017-07-02T19:31:07.185Z,48.40
2017-07-02T19:33:34.730Z,47.60
2017-07-02T19:36:03.025Z,49.30
2017-07-02T19:38:31.269Z,50.10
2017-07-02T19:40:59.532Z,50.20
2017-07-02T19:43:27.014Z,50.20
2017-07-02T19:45:54.625Z,50.90
2017-07-02T19:48:22.176Z,51.40
2017-07-02T19:50:49.656Z,51.60
2017-07-02T19:53:17.169Z,51.60
2017-07-02T19:55:48.977Z,51.60
2017-07-02T19:58:17.490Z,52.30
2017-07-02T20:00:45.138Z,52.20
2017-07-02T20:03:13.297Z,52.40
2017-07-02T20:05:40.830Z,51.40
2017-07-02T20:08:08.323Z,52.70
2017-07-02T20:10:35.864Z,52.70
2017-07-02T20:13:03.389Z,52.80
2017-07-02T20:15:30.884Z,52.70
2017-07-02T20:17:58.431Z,52.80
2017-07-02T20:20:25.979Z,52.90
2017-07-02T20:22:53.508Z,54.30
2017-07-02T20:25:21.059Z,54.90
2017-07-02T20:27:48.813Z,55.30
2017-07-02T20:30:16.453Z,55.90
2017-07-02T20:32:43.937Z,56.20
2017-07-02T20:35:11.543Z,55.30
2017-07-02T20:37:39.136Z,55.70
2017-07-02T20:40:06.849Z,55.90
2017-07-02T20:42:34.504Z,55.80
2017-07-02T20:45:01.992Z,56.20
2017-07-02T20:47:29.664Z,56.10
2017-07-02T20:49:57.213Z,56.00
2017-07-02T20:52:24.692Z,56.50
2017-07-02T20:54:52.197Z,56.50
2017-07-02T20:57:19.733Z,56.60
2017-07-02T20:59:47.284Z,56.60
2017-07-02T21:02:14.822Z,57.30
2017-07-02T21:04:42.310Z,57.40
2017-07-02T21:07:09.912Z,58.10
2017-07-02T21:09:37.577Z,58.20
2017-07-02T21:12:05.113Z,58.50
2017-07-02T21:14:32.653Z,58.90
2017-07-02T21:17:00.140Z,58.80
2017-07-02T21:19:27.733Z,59.30
2017-07-02T21:21:55.271Z,59.50
2017-07-02T21:24:22.817Z,59.80
2017-07-02T21:26:50.361Z,60.40
2017-07-02T21:29:17.901Z,60.80
2017-07-02T21:31:45.393Z,61.10
2017-07-02T21:34:13.011Z,60.90
2017-07-02T21:36:40.520Z,61.10
2017-07-02T21:39:08.016Z,60.80
2017-07-02T21:41:35.858Z,61.30
2017-07-02T21:44:03.359Z,61.80
2017-07-02T21:46:31.608Z,62.70
2017-07-02T21:48:59.124Z,62.70
2017-07-02T21:51:26.636Z,63.10
2017-07-02T21:53:54.112Z,63.00
2017-07-02T21:56:21.596Z,63.00
2017-07-02T21:58:49.140Z,62.90
2017-07-02T22:01:16.683Z,63.50
2017-07-02T22:03:44.204Z,63.80
2017-07-02T22:06:12.472Z,64.20
2017-07-02T22:08:40.956Z,62.90
2017-07-02T22:11:08.465Z,62.90
2017-07-02T22:13:36.060Z,62.80
2017-07-02T22:16:03.556Z,63.70
2017-07-02T22:18:31.809Z,64.50
2017-07-02T22:20:59.385Z,64.50
2017-07-02T22:23:26.889Z,64.60
2017-07-02T22:25:54.472Z,64.40
2017-07-02T22:28:22.021Z,64.70
2017-07-02T22:30:49.590Z,65.40
2017-07-02T22:33:17.104Z,65.70
2017-07-02T22:35:44.652Z,66.10
2017-07-02T22:38:12.149Z,65.70
2017-07-02T22:40:39.668Z,65.80
2017-07-02T22:43:07.393Z,66.40
2017-07-02T22:45:34.900Z,66.80
2017-07-02T22:48:03.193Z,68.10
2017-07-02T22:50:30.733Z,67.20
2017-07-02T22:52:58.277Z,67.50
2017-07-02T22:55:25.819Z,67.90
2017-07-02T22:57:53.360Z,68.00
2017-07-02T23:00:20.844Z,67.90
2017-07-02T23:02:48.331Z,68.10
2017-07-02T23:05:16.608Z,67.90
2017-07-02T23:07:44.122Z,67.80
2017-07-02T23:10:12.405Z,68.40
2017-07-02T23:12:39.924Z,68.40
2017-07-02T23:15:08.228Z,68.80
2017-07-02T23:17:35.721Z,68.70
2017-07-02T23:20:04.019Z,69.00
2017-07-02T23:22:31.541Z,69.00
2017-07-02T23:24:59.819Z,70.00
2017-07-02T23:27:27.304Z,69.80
2017-07-02T23:29:54.788Z,69.90
2017-07-02T23:32:23.064Z,70.00
2017-07-02T23:34:50.608Z,70.00
2017-07-02T23:37:18.088Z,70.20
2017-07-02T23:39:45.795Z,70.10
2017-07-02T23:42:13.314Z,70.50
2017-07-02T23:44:41.595Z,71.10
2017-07-02T23:47:09.123Z,71.10
2017-07-02T23:49:36.654Z,71.20
2017-07-02T23:52:04.198Z,71.10
2017-07-02T23:54:31.782Z,71.30
2017-07-02T23:56:59.262Z,71.60
2017-07-02T23:59:26.938Z,71.60
